createdAt,value
2023-01-29T00:02:05.956Z,62.28
2023-01-29T00:04:34.211Z,53.02
2023-01-29T00:07:01.957Z,53.64
2023-01-29T00:09:29.727Z,56.99
2023-01-29T00:11:57.381Z,61.93
2023-01-29T00:14:26.684Z,61.86
2023-01-29T00:16:54.908Z,56.38
2023-01-29T00:19:22.723Z,54.50
2023-01-29T00:21:50.385Z,59.03
2023-01-29T00:24:18.177Z,61.19
2023-01-29T00:26:46.017Z,66.35
2023-01-29T00:29:14.088Z,60.82
2023-01-29T00:31:42.095Z,53.26
2023-01-29T00:34:09.919Z,54.36
2023-01-29T00:36:37.581Z,56.61
2023-01-29T00:39:10.974Z,59.14
2023-01-29T00:41:57.482Z,64.63
2023-01-29T00:44:43.886Z,62.13
2023-01-29T00:47:30.760Z,50.50
2023-01-29T00:49:58.562Z,50.96
2023-01-29T00:52:26.371Z,54.24
2023-01-29T00:54:54.188Z,56.46
2023-01-29T00:57:21.951Z,58.48
2023-01-29T00:59:49.715Z,63.02
2023-01-29T01:02:36.117Z,66.72
2023-01-29T01:05:03.983Z,57.13
2023-01-29T01:07:31.645Z,51.30
2023-01-29T01:10:18.552Z,53.11
2023-01-29T01:12:46.427Z,55.81
2023-01-29T01:15:14.195Z,61.13
2023-01-29T01:17:41.951Z,62.08
2023-01-29T01:20:09.820Z,60.04
2023-01-29T01:22:37.479Z,50.15
2023-01-29T01:25:05.140Z,51.43
2023-01-29T01:27:32.903Z,54.78
2023-01-29T01:30:00.665Z,56.89
2023-01-29T01:32:28.336Z,59.46
2023-01-29T01:34:56.095Z,64.31
2023-01-29T01:37:23.754Z,65.05
2023-01-29T01:39:51.416Z,55.68
2023-01-29T01:42:19.079Z,51.18
2023-01-29T01:44:46.739Z,51.57
2023-01-29T01:47:15.732Z,54.00
2023-01-29T01:49:43.395Z,55.75
2023-01-29T01:52:11.158Z,59.69
2023-01-29T01:54:38.790Z,60.21
2023-01-29T01:57:09.564Z,67.10
2023-01-29T01:59:37.318Z,63.59
2023-01-29T02:02:24.048Z,53.29
2023-01-29T02:05:10.785Z,53.59
2023-01-29T02:07:57.439Z,55.14
2023-01-29T02:10:25.408Z,57.25
2023-01-29T02:12:53.177Z,57.38
2023-01-29T02:15:20.940Z,58.87
2023-01-29T02:17:48.747Z,58.93
2023-01-29T02:20:16.657Z,62.64
2023-01-29T02:22:44.533Z,66.19
2023-01-29T02:25:12.400Z,52.73
2023-01-29T02:27:40.167Z,50.05
2023-01-29T02:30:07.934Z,53.17
2023-01-29T02:32:35.901Z,57.94
2023-01-29T02:35:22.301Z,58.23
2023-01-29T02:37:49.960Z,62.85
2023-01-29T02:40:17.869Z,58.50
2023-01-29T02:42:45.898Z,53.63
2023-01-29T02:45:13.562Z,53.88
2023-01-29T02:47:41.322Z,55.05
2023-01-29T02:50:09.090Z,57.03
2023-01-29T02:52:36.850Z,58.03
2023-01-29T02:55:05.024Z,59.23
2023-01-29T02:57:32.794Z,60.03
2023-01-29T03:00:00.452Z,65.10
2023-01-29T03:02:28.230Z,66.77
2023-01-29T03:04:55.978Z,57.10
2023-01-29T03:07:43.093Z,49.62
2023-01-29T03:10:10.859Z,51.02
2023-01-29T03:12:38.520Z,53.38
2023-01-29T03:15:12.440Z,55.40
2023-01-29T03:17:40.193Z,56.14
2023-01-29T03:20:08.366Z,57.39
2023-01-29T03:22:36.024Z,60.32
2023-01-29T03:25:22.631Z,63.96
2023-01-29T03:28:09.337Z,66.43
2023-01-29T03:30:55.791Z,51.75
2023-01-29T03:33:23.505Z,52.19
2023-01-29T03:35:52.194Z,56.24
2023-01-29T03:38:19.956Z,58.19
2023-01-29T03:40:47.624Z,61.36
2023-01-29T03:43:15.378Z,62.35
2023-01-29T03:45:43.207Z,59.57
2023-01-29T03:48:11.111Z,54.81
2023-01-29T03:50:38.975Z,56.93
2023-01-29T03:53:06.749Z,59.02
2023-01-29T03:55:34.509Z,60.45
2023-01-29T03:58:02.269Z,61.13
2023-01-29T04:00:29.934Z,63.84
2023-01-29T04:02:57.695Z,65.43
2023-01-29T04:05:25.567Z,56.28
2023-01-29T04:07:53.323Z,49.87
2023-01-29T04:10:21.089Z,51.45
2023-01-29T04:12:48.865Z,53.04
2023-01-29T04:15:16.723Z,55.09
2023-01-29T04:17:44.481Z,56.61
2023-01-29T04:20:12.246Z,57.66
2023-01-29T04:22:39.914Z,60.27
2023-01-29T04:25:08.798Z,60.28
2023-01-29T04:27:36.561Z,65.45
2023-01-29T04:30:04.329Z,63.65
2023-01-29T04:32:32.101Z,51.22
2023-01-29T04:34:59.854Z,47.52
2023-01-29T04:37:27.623Z,50.75
2023-01-29T04:39:55.486Z,51.56
2023-01-29T04:42:23.249Z,53.84
2023-01-29T04:44:50.905Z,55.58
2023-01-29T04:47:18.819Z,57.66
2023-01-29T04:49:46.539Z,58.57
2023-01-29T04:52:14.199Z,61.27
2023-01-29T04:54:41.861Z,66.20
2023-01-29T04:57:09.933Z,57.02
2023-01-29T04:59:37.697Z,51.25
2023-01-29T05:02:05.460Z,54.28
2023-01-29T05:04:33.128Z,57.72
2023-01-29T05:07:00.886Z,59.17
2023-01-29T05:09:28.556Z,59.13
2023-01-29T05:11:56.314Z,60.17
2023-01-29T05:14:24.079Z,62.31
2023-01-29T05:16:51.740Z,65.05
2023-01-29T05:19:19.502Z,57.96
2023-01-29T05:21:47.167Z,47.73
2023-01-29T05:24:14.912Z,48.89
2023-01-29T05:27:01.228Z,51.71
2023-01-29T05:29:28.888Z,54.88
2023-01-29T05:31:56.606Z,55.69
2023-01-29T05:34:24.418Z,56.26
2023-01-29T05:36:52.189Z,59.14
2023-01-29T05:39:19.948Z,61.43
2023-01-29T05:41:47.710Z,64.08
2023-01-29T05:44:15.592Z,61.07
2023-01-29T05:46:44.308Z,50.68
2023-01-29T05:49:12.123Z,52.58
2023-01-29T05:51:39.888Z,55.20
2023-01-29T05:54:07.655Z,57.68
2023-01-29T05:56:35.414Z,58.59
2023-01-29T05:59:03.294Z,60.52
2023-01-29T06:01:31.040Z,61.89
2023-01-29T06:03:58.911Z,63.06
2023-01-29T06:06:26.573Z,58.88
2023-01-29T06:08:54.336Z,54.04
2023-01-29T06:11:22.099Z,56.16
2023-01-29T06:13:49.865Z,58.38
2023-01-29T06:16:17.708Z,59.74
2023-01-29T06:18:45.598Z,60.94
2023-01-29T06:21:13.365Z,62.38
2023-01-29T06:23:41.124Z,63.54
2023-01-29T06:26:08.891Z,57.07
2023-01-29T06:28:36.654Z,53.24
2023-01-29T06:31:23.771Z,54.21
2023-01-29T06:33:52.049Z,58.29
2023-01-29T06:36:19.816Z,59.78
2023-01-29T06:38:47.702Z,61.44
2023-01-29T06:41:15.543Z,62.77
2023-01-29T06:43:43.303Z,61.76
2023-01-29T06:46:10.968Z,53.07
2023-01-29T06:48:38.737Z,53.59
2023-01-29T06:51:06.497Z,55.12
2023-01-29T06:53:34.259Z,58.71
2023-01-29T06:56:02.025Z,60.36
2023-01-29T06:58:29.825Z,61.13
2023-01-29T07:00:57.901Z,61.15
2023-01-29T07:03:25.724Z,62.38
2023-01-29T07:05:53.591Z,63.01
2023-01-29T07:08:22.991Z,53.11
2023-01-29T07:10:50.962Z,50.24
2023-01-29T07:13:18.724Z,53.20
2023-01-29T07:15:46.487Z,56.28
2023-01-29T07:18:14.267Z,57.97
2023-01-29T07:20:42.119Z,59.95
2023-01-29T07:23:09.885Z,61.33
2023-01-29T07:25:37.646Z,62.41
2023-01-29T07:28:05.309Z,62.99
2023-01-29T07:30:33.031Z,53.38
2023-01-29T07:33:00.736Z,51.84
2023-01-29T07:35:28.496Z,54.96
2023-01-29T07:37:56.266Z,57.97
2023-01-29T07:40:24.026Z,60.19
2023-01-29T07:42:51.789Z,61.50
2023-01-29T07:45:19.552Z,62.29
2023-01-29T07:47:47.225Z,61.17
2023-01-29T07:50:15.373Z,52.15
2023-01-29T07:52:43.358Z,52.14
2023-01-29T07:55:11.018Z,55.17
2023-01-29T07:57:38.796Z,57.76
2023-01-29T08:00:06.545Z,60.26
2023-01-29T08:02:34.391Z,61.17
2023-01-29T08:05:02.175Z,62.21
2023-01-29T08:07:29.939Z,61.47
2023-01-29T08:09:57.708Z,54.26
2023-01-29T08:12:25.467Z,54.85
2023-01-29T08:14:53.232Z,57.02
2023-01-29T08:17:21.000Z,58.98
2023-01-29T08:19:48.761Z,60.49
2023-01-29T08:22:16.840Z,60.37
2023-01-29T08:24:53.716Z,62.72
2023-01-29T08:27:27.927Z,63.91
2023-01-29T08:29:55.685Z,50.90
2023-01-29T08:32:23.363Z,46.56
2023-01-29T08:34:51.130Z,49.70
2023-01-29T08:37:18.887Z,51.23
2023-01-29T08:39:46.657Z,51.62
2023-01-29T08:42:14.403Z,55.73
2023-01-29T08:44:42.169Z,58.40
2023-01-29T08:47:09.828Z,57.94
2023-01-29T08:49:37.598Z,59.65
2023-01-29T08:52:05.254Z,57.60
2023-01-29T08:54:33.017Z,58.71
2023-01-29T08:57:00.782Z,60.87
2023-01-29T08:59:28.445Z,66.62
2023-01-29T09:01:56.208Z,57.40
2023-01-29T09:04:23.868Z,46.56
2023-01-29T09:06:51.632Z,48.32
2023-01-29T09:09:19.294Z,47.81
2023-01-29T09:11:47.057Z,49.53
2023-01-29T09:14:14.926Z,54.95
2023-01-29T09:16:42.812Z,54.13
2023-01-29T09:19:10.556Z,54.82
2023-01-29T09:21:38.224Z,56.60
2023-01-29T09:24:05.979Z,56.68
2023-01-29T09:26:33.672Z,58.47
2023-01-29T09:29:01.510Z,60.59
2023-01-29T09:31:29.344Z,59.89
2023-01-29T09:33:57.239Z,58.64
2023-01-29T09:36:25.010Z,60.40
2023-01-29T09:38:52.767Z,66.33
2023-01-29T09:41:20.427Z,59.37
2023-01-29T09:43:48.500Z,48.27
2023-01-29T09:46:16.312Z,47.03
2023-01-29T09:48:44.133Z,48.40
2023-01-29T09:51:11.895Z,52.71
2023-01-29T09:53:39.711Z,55.41
2023-01-29T09:56:07.421Z,56.87
2023-01-29T09:58:35.915Z,58.32
2023-01-29T10:01:03.720Z,59.36
2023-01-29T10:03:31.430Z,60.11
2023-01-29T10:05:59.092Z,60.83
2023-01-29T10:08:26.964Z,60.79
2023-01-29T10:10:55.334Z,61.78
2023-01-29T10:13:23.102Z,63.49
2023-01-29T10:15:50.968Z,63.00
2023-01-29T10:18:18.749Z,48.04
2023-01-29T10:20:46.502Z,46.63
2023-01-29T10:23:14.260Z,47.53
2023-01-29T10:25:42.037Z,51.38
2023-01-29T10:28:09.787Z,54.31
2023-01-29T10:30:37.565Z,53.29
2023-01-29T10:33:05.315Z,57.80
2023-01-29T10:35:33.076Z,56.48
2023-01-29T10:38:00.840Z,59.54
2023-01-29T10:40:28.502Z,60.39
2023-01-29T10:42:57.494Z,59.79
2023-01-29T10:45:25.155Z,61.07
2023-01-29T10:47:53.116Z,60.41
2023-01-29T10:50:20.995Z,62.04
2023-01-29T10:52:50.110Z,61.79
2023-01-29T10:55:18.120Z,66.34
2023-01-29T10:57:46.126Z,61.82
2023-01-29T11:00:13.903Z,51.23
2023-01-29T11:02:41.742Z,49.37
2023-01-29T11:05:10.313Z,53.00
2023-01-29T11:07:38.122Z,54.54
2023-01-29T11:10:05.870Z,55.98
2023-01-29T11:12:33.946Z,57.46
2023-01-29T11:15:01.702Z,58.42
2023-01-29T11:17:29.479Z,59.43
2023-01-29T11:19:57.192Z,59.65
2023-01-29T11:22:24.993Z,61.63
2023-01-29T11:24:52.779Z,62.03
2023-01-29T11:27:20.521Z,62.23
2023-01-29T11:29:48.409Z,63.53
2023-01-29T11:32:16.151Z,60.56
2023-01-29T11:34:43.918Z,49.63
2023-01-29T11:37:11.684Z,49.71
2023-01-29T11:39:39.442Z,51.02
2023-01-29T11:42:13.502Z,53.86
2023-01-29T11:44:41.829Z,55.97
2023-01-29T11:47:09.495Z,57.15
2023-01-29T11:49:37.667Z,59.25
2023-01-29T11:52:05.337Z,60.42
2023-01-29T11:54:33.603Z,60.77
2023-01-29T11:57:01.572Z,61.32
2023-01-29T11:59:29.244Z,60.46
2023-01-29T12:01:57.210Z,60.14
2023-01-29T12:04:24.965Z,62.06
2023-01-29T12:06:53.352Z,66.93
2023-01-29T12:09:21.113Z,59.18
2023-01-29T12:11:48.872Z,49.01
2023-01-29T12:14:16.636Z,49.51
2023-01-29T12:16:44.403Z,51.78
2023-01-29T12:19:12.169Z,53.23
2023-01-29T12:21:40.132Z,53.94
2023-01-29T12:24:07.910Z,57.27
2023-01-29T12:26:35.713Z,58.41
2023-01-29T12:29:03.526Z,59.38
2023-01-29T12:31:31.201Z,60.02
2023-01-29T12:33:58.954Z,61.35
2023-01-29T12:36:26.717Z,61.28
2023-01-29T12:38:54.480Z,61.70
2023-01-29T12:41:22.344Z,66.74
2023-01-29T12:43:50.111Z,64.23
2023-01-29T12:46:17.771Z,51.39
2023-01-29T12:48:45.537Z,48.58
2023-01-29T12:51:13.301Z,50.25
2023-01-29T12:53:41.062Z,53.79
2023-01-29T12:56:08.724Z,55.51
2023-01-29T12:58:36.805Z,58.03
2023-01-29T13:01:04.612Z,58.45
2023-01-29T13:03:32.701Z,58.83
2023-01-29T13:06:00.497Z,58.66
2023-01-29T13:08:28.260Z,59.63
2023-01-29T13:10:55.926Z,59.89
2023-01-29T13:13:23.685Z,61.37
2023-01-29T13:15:51.456Z,60.86
2023-01-29T13:18:19.213Z,65.72
2023-01-29T13:20:46.874Z,62.83
2023-01-29T13:23:14.537Z,52.49
2023-01-29T13:25:42.305Z,48.31
2023-01-29T13:28:09.962Z,51.33
2023-01-29T13:30:37.656Z,53.57
2023-01-29T13:33:12.103Z,53.32
2023-01-29T13:35:40.528Z,56.07
2023-01-29T13:38:08.185Z,57.61
2023-01-29T13:40:36.050Z,59.10
2023-01-29T13:43:04.225Z,60.35
2023-01-29T13:45:31.992Z,62.11
2023-01-29T13:47:59.621Z,66.40
2023-01-29T13:50:27.618Z,61.98
2023-01-29T13:52:55.280Z,49.32
2023-01-29T13:55:24.181Z,49.87
2023-01-29T13:57:54.705Z,52.36
2023-01-29T14:00:31.072Z,54.17
2023-01-29T14:02:58.829Z,57.21
2023-01-29T14:05:26.703Z,56.17
2023-01-29T14:07:54.459Z,57.79
2023-01-29T14:10:22.224Z,59.55
2023-01-29T14:12:49.988Z,61.51
2023-01-29T14:15:20.989Z,64.06
2023-01-29T14:17:49.207Z,65.80
2023-01-29T14:20:16.969Z,55.78
2023-01-29T14:22:44.726Z,47.55
2023-01-29T14:25:12.389Z,50.75
2023-01-29T14:27:40.161Z,53.15
2023-01-29T14:30:07.931Z,52.04
2023-01-29T14:32:35.784Z,55.42
2023-01-29T14:35:03.445Z,56.40
2023-01-29T14:37:31.253Z,58.96
2023-01-29T14:39:58.980Z,59.63
2023-01-29T14:42:26.634Z,61.24
2023-01-29T14:44:54.295Z,61.13
2023-01-29T14:47:22.062Z,62.29
2023-01-29T14:49:49.825Z,65.96
2023-01-29T14:52:17.799Z,57.77
2023-01-29T14:54:45.461Z,50.10
2023-01-29T14:57:13.220Z,49.03
2023-01-29T14:59:40.881Z,51.97
2023-01-29T15:02:08.541Z,54.56
2023-01-29T15:04:36.305Z,55.90
2023-01-29T15:07:06.736Z,58.00
2023-01-29T15:09:36.661Z,58.80
2023-01-29T15:12:04.815Z,61.10
2023-01-29T15:14:32.614Z,61.58
2023-01-29T15:17:00.358Z,62.84
2023-01-29T15:19:28.111Z,64.80
2023-01-29T15:21:55.874Z,54.05
2023-01-29T15:24:23.741Z,50.65
2023-01-29T15:26:51.529Z,51.58
2023-01-29T15:29:19.370Z,53.28
2023-01-29T15:31:48.005Z,56.09
2023-01-29T15:34:15.921Z,57.78
2023-01-29T15:36:43.686Z,58.66
2023-01-29T15:39:11.350Z,58.82
2023-01-29T15:41:39.114Z,61.15
2023-01-29T15:44:06.774Z,62.21
2023-01-29T15:46:34.536Z,64.99
2023-01-29T15:49:02.301Z,58.29
2023-01-29T15:51:29.971Z,51.32
2023-01-29T15:53:57.725Z,52.07
2023-01-29T15:56:25.387Z,53.42
2023-01-29T15:58:53.158Z,57.55
2023-01-29T16:01:20.859Z,59.62
2023-01-29T16:03:48.575Z,60.29
2023-01-29T16:06:16.545Z,60.46
2023-01-29T16:08:44.206Z,60.36
2023-01-29T16:11:11.866Z,64.08
2023-01-29T16:13:39.544Z,64.40
2023-01-29T16:16:08.689Z,52.85
2023-01-29T16:18:36.923Z,51.86
2023-01-29T16:21:06.711Z,54.24
2023-01-29T16:23:35.088Z,55.06
2023-01-29T16:26:02.853Z,58.07
2023-01-29T16:28:30.521Z,58.32
2023-01-29T16:30:58.570Z,58.25
2023-01-29T16:33:26.660Z,59.83
2023-01-29T16:35:54.425Z,62.03
2023-01-29T16:38:22.086Z,66.19
2023-01-29T16:40:49.846Z,61.17
2023-01-29T16:43:17.513Z,51.36
2023-01-29T16:45:45.377Z,51.74
2023-01-29T16:48:13.037Z,53.13
2023-01-29T16:50:54.375Z,55.29
2023-01-29T16:53:24.744Z,58.27
2023-01-29T16:55:52.548Z,59.78
2023-01-29T16:58:20.389Z,60.68
2023-01-29T17:00:48.078Z,62.23
2023-01-29T17:03:15.798Z,67.31
2023-01-29T17:05:43.563Z,59.30
2023-01-29T17:08:11.225Z,50.87
2023-01-29T17:10:38.987Z,52.60
2023-01-29T17:13:06.872Z,54.85
2023-01-29T17:15:34.620Z,56.96
2023-01-29T17:18:02.381Z,59.02
2023-01-29T17:20:30.042Z,59.60
2023-01-29T17:22:57.707Z,61.10
2023-01-29T17:25:25.468Z,61.96
2023-01-29T17:27:53.137Z,61.97
2023-01-29T17:30:20.930Z,67.50
2023-01-29T17:32:48.761Z,60.91
2023-01-29T17:35:17.574Z,50.00
2023-01-29T17:37:45.978Z,47.65
2023-01-29T17:40:13.796Z,50.80
2023-01-29T17:42:41.659Z,51.54
2023-01-29T17:45:11.062Z,53.16
2023-01-29T17:47:38.829Z,55.96
2023-01-29T17:50:06.594Z,57.68
2023-01-29T17:52:34.353Z,59.88
2023-01-29T17:55:02.117Z,60.19
2023-01-29T17:57:32.581Z,62.35
2023-01-29T18:00:00.522Z,67.19
2023-01-29T18:02:28.482Z,54.01
2023-01-29T18:04:57.687Z,48.55
2023-01-29T18:07:25.466Z,49.04
2023-01-29T18:09:53.212Z,53.31
2023-01-29T18:12:20.869Z,56.44
2023-01-29T18:14:48.531Z,57.06
2023-01-29T18:17:22.439Z,59.52
2023-01-29T18:19:50.142Z,60.32
2023-01-29T18:22:17.864Z,59.00
2023-01-29T18:24:45.645Z,61.54
2023-01-29T18:27:13.389Z,62.48
2023-01-29T18:29:41.159Z,68.20
2023-01-29T18:32:08.921Z,59.00
2023-01-29T18:34:36.683Z,50.66
2023-01-29T18:37:04.652Z,50.65
2023-01-29T18:39:32.318Z,53.52
2023-01-29T18:42:00.022Z,55.14
2023-01-29T18:44:29.886Z,56.63
2023-01-29T18:46:57.656Z,59.71
2023-01-29T18:49:25.416Z,61.15
2023-01-29T18:51:53.180Z,61.77
2023-01-29T18:54:21.673Z,65.61
2023-01-29T18:57:12.875Z,57.72
2023-01-29T18:59:37.157Z,49.22
2023-01-29T19:02:05.277Z,51.63
2023-01-29T19:04:33.097Z,53.35
2023-01-29T19:07:00.858Z,55.82
2023-01-29T19:09:28.727Z,57.78
2023-01-29T19:11:56.498Z,58.06
2023-01-29T19:14:24.251Z,59.39
2023-01-29T19:16:51.973Z,61.06
2023-01-29T19:19:20.399Z,64.70
2023-01-29T19:21:48.159Z,62.93
2023-01-29T19:24:16.025Z,53.07
2023-01-29T19:26:43.736Z,50.36
2023-01-29T19:29:11.764Z,53.59
2023-01-29T19:31:39.578Z,54.45
2023-01-29T19:34:07.395Z,58.06
2023-01-29T19:36:35.152Z,59.18
2023-01-29T19:39:02.915Z,61.49
2023-01-29T19:41:30.786Z,63.17
2023-01-29T19:43:58.648Z,66.96
2023-01-29T19:46:26.417Z,54.62
2023-01-29T19:48:57.145Z,49.73
2023-01-29T19:51:24.909Z,50.27
2023-01-29T19:53:52.675Z,53.80
2023-01-29T19:56:20.648Z,56.17
2023-01-29T19:58:48.420Z,57.96
2023-01-29T20:01:16.172Z,59.36
2023-01-29T20:03:46.696Z,61.58
2023-01-29T20:06:14.463Z,63.05
2023-01-29T20:08:42.177Z,64.23
2023-01-29T20:11:10.095Z,52.20
2023-01-29T20:13:37.962Z,48.60
2023-01-29T20:16:05.836Z,52.33
2023-01-29T20:18:33.692Z,54.19
2023-01-29T20:21:01.353Z,58.02
2023-01-29T20:23:37.661Z,60.03
2023-01-29T20:26:06.104Z,61.73
2023-01-29T20:28:34.784Z,64.73
2023-01-29T20:31:03.242Z,60.49
2023-01-29T20:33:32.770Z,49.32
2023-01-29T20:36:00.639Z,50.06
2023-01-29T20:38:31.983Z,51.42
2023-01-29T20:40:59.853Z,55.21
2023-01-29T20:43:27.611Z,56.28
2023-01-29T20:45:55.400Z,59.68
2023-01-29T20:48:23.558Z,60.20
2023-01-29T20:50:51.416Z,61.49
2023-01-29T20:53:19.587Z,65.83
2023-01-29T20:55:47.969Z,61.09
2023-01-29T20:58:15.835Z,50.89
2023-01-29T21:00:43.616Z,49.26
2023-01-29T21:03:11.361Z,54.19
2023-01-29T21:05:39.125Z,56.07
2023-01-29T21:08:06.788Z,56.72
2023-01-29T21:10:34.550Z,56.22
2023-01-29T21:13:02.313Z,58.05
2023-01-29T21:15:30.077Z,60.74
2023-01-29T21:17:59.788Z,65.18
2023-01-29T21:20:27.449Z,59.56
2023-01-29T21:22:55.522Z,48.96
2023-01-29T21:25:23.698Z,50.11
2023-01-29T21:27:51.458Z,52.30
2023-01-29T21:30:19.598Z,54.26
2023-01-29T21:32:47.701Z,57.85
2023-01-29T21:35:16.695Z,60.18
2023-01-29T21:37:44.458Z,61.59
2023-01-29T21:40:12.127Z,62.51
2023-01-29T21:42:58.520Z,61.95
2023-01-29T21:45:26.284Z,51.92
2023-01-29T21:47:54.048Z,50.64
2023-01-29T21:50:21.818Z,53.05
2023-01-29T21:52:49.576Z,56.65
2023-01-29T21:55:17.442Z,58.69
2023-01-29T21:57:46.966Z,60.57
2023-01-29T22:00:14.826Z,62.23
2023-01-29T22:02:42.940Z,63.66
2023-01-29T22:05:18.623Z,56.75
2023-01-29T22:07:47.442Z,52.45
2023-01-29T22:10:15.838Z,54.18
2023-01-29T22:12:44.900Z,57.44
2023-01-29T22:15:12.659Z,59.55
2023-01-29T22:17:41.786Z,61.37
2023-01-29T22:20:09.619Z,65.28
2023-01-29T22:22:37.393Z,63.77
2023-01-29T22:25:05.189Z,53.42
2023-01-29T22:27:33.527Z,50.05
2023-01-29T22:30:01.293Z,51.86
2023-01-29T22:32:29.091Z,52.62
2023-01-29T22:34:56.923Z,55.31
2023-01-29T22:37:24.687Z,57.48
2023-01-29T22:39:52.452Z,59.09
2023-01-29T22:42:20.891Z,60.80
2023-01-29T22:44:48.910Z,60.90
2023-01-29T22:47:16.663Z,61.97
2023-01-29T22:49:45.780Z,66.88
2023-01-29T22:52:13.902Z,62.02
2023-01-29T22:54:41.599Z,49.64
2023-01-29T22:57:10.328Z,48.02
2023-01-29T22:59:38.042Z,50.47
2023-01-29T23:02:07.955Z,52.60
2023-01-29T23:04:35.736Z,56.00
2023-01-29T23:07:03.596Z,56.58
2023-01-29T23:09:31.280Z,59.14
2023-01-29T23:11:59.016Z,60.66
2023-01-29T23:14:26.674Z,65.71
2023-01-29T23:16:54.440Z,62.61
2023-01-29T23:19:22.203Z,49.97
2023-01-29T23:21:49.976Z,48.59
2023-01-29T23:24:17.729Z,50.13
2023-01-29T23:27:04.437Z,52.59
2023-01-29T23:29:32.200Z,55.11
2023-01-29T23:31:59.892Z,55.00
2023-01-29T23:34:27.630Z,58.45
2023-01-29T23:36:55.391Z,60.17
2023-01-29T23:39:23.154Z,61.18
2023-01-29T23:41:50.930Z,66.30
2023-01-29T23:44:18.784Z,64.38
2023-01-29T23:46:46.481Z,49.46
2023-01-29T23:49:14.209Z,47.07
2023-01-29T23:51:41.974Z,48.86
2023-01-29T23:54:09.639Z,50.79
2023-01-29T23:56:37.297Z,55.04
2023-01-29T23:59:05.063Z,55.62
